Time;durP1;ratioP1;P1;durP2;ratioP2;P2;SDS_P1;SDS_P2;PMS_P1;PMS_P2;Temp;Humidity;BMP_temperature;BMP_pressure;BME280_temperature;BME280_humidity;BME280_pressure;Samples;Min_cycle;Max_cycle;Signal;HPM_P1;HPM_P2
2022/11/02 00:00:40;;;;;;;12.68;3.10;;;11.90;99.90;;;;;;5132724;27;20078;-53
2022/11/02 00:03:06;;;;;;;8.40;2.10;;;11.80;99.90;;;;;;5136379;27;20583;-50
2022/11/02 00:05:31;;;;;;;11.60;3.05;;;11.70;99.90;;;;;;5133003;27;20086;-46
2022/11/02 00:07:57;;;;;;;12.25;3.03;;;11.60;99.90;;;;;;5134320;27;20358;-50
2022/11/02 00:10:24;;;;;;;11.40;2.30;;;11.60;99.90;;;;;;5129138;27;20043;-51
2022/11/02 00:12:51;;;;;;;9.07;2.50;;;11.50;99.90;;;;;;5136852;27;20082;-53
2022/11/02 00:15:17;;;;;;;9.20;2.78;;;11.40;99.90;;;;;;5137021;27;20050;-47
2022/11/02 00:17:58;;;;;;;11.15;2.42;;;11.40;99.90;;;;;;5136726;27;20419;-52
2022/11/02 00:20:25;;;;;;;8.18;2.50;;;11.40;99.90;;;;;;5116693;27;20157;-51
2022/11/02 00:22:54;;;;;;;12.68;4.70;;;11.40;99.90;;;;;;5136338;27;20051;-46
2022/11/02 00:25:22;;;;;;;8.65;2.08;;;11.30;99.90;;;;;;5136603;27;20087;-55
2022/11/02 00:27:48;;;;;;;8.15;2.20;;;11.30;99.90;;;;;;5136906;27;20039;-47
2022/11/02 00:30:14;;;;;;;7.68;2.20;;;11.30;99.90;;;;;;5135609;27;20056;-47
2022/11/02 00:32:40;;;;;;;8.52;2.20;;;11.30;99.90;;;;;;5136308;27;20042;-53
2022/11/02 00:35:06;;;;;;;7.65;2.30;;;11.30;99.90;;;;;;5136940;27;20042;-49
2022/11/02 00:37:31;;;;;;;8.55;2.05;;;11.30;99.90;;;;;;5136589;27;20045;-46
2022/11/02 00:39:57;;;;;;;5.05;1.60;;;11.30;99.90;;;;;;5116996;27;20050;-52
2022/11/02 00:42:23;;;;;;;6.43;1.77;;;11.30;99.90;;;;;;5136477;27;20412;-48
2022/11/02 00:44:48;;;;;;;6.13;1.48;;;11.30;99.90;;;;;;5135678;27;20050;-51
2022/11/02 00:47:14;;;;;;;6.80;1.73;;;11.20;99.90;;;;;;5136619;27;20054;-46
2022/11/02 00:49:40;;;;;;;6.40;1.65;;;11.20;99.90;;;;;;5136284;27;20042;-48
2022/11/02 00:52:05;;;;;;;5.90;1.70;;;11.20;99.90;;;;;;5137274;27;20151;-46
2022/11/02 00:54:31;;;;;;;7.22;1.92;;;11.20;99.90;;;;;;5136026;27;20047;-49
2022/11/02 00:56:57;;;;;;;5.28;1.50;;;11.10;99.90;;;;;;5137132;27;20391;-51
2022/11/02 00:59:22;;;;;;;7.85;2.10;;;11.10;99.90;;;;;;5135890;27;20041;-48
2022/11/02 01:01:48;;;;;;;5.70;1.60;;;11.00;99.90;;;;;;5136886;27;20452;-45
2022/11/02 01:04:15;;;;;;;3.63;1.40;;;11.00;99.90;;;;;;5133934;27;20046;-47
2022/11/02 01:06:42;;;;;;;5.15;1.55;;;11.00;99.90;;;;;;5134815;27;20488;-50
2022/11/02 01:09:08;;;;;;;5.57;1.60;;;11.00;99.90;;;;;;5125322;27;20165;-51
2022/11/02 01:11:33;;;;;;;3.88;1.33;;;11.00;99.90;;;;;;5136070;27;20302;-52
2022/11/02 01:13:59;;;;;;;5.03;1.40;;;11.00;99.90;;;;;;5135753;27;20449;-46
2022/11/02 01:16:25;;;;;;;4.00;1.27;;;11.00;99.90;;;;;;5136393;27;20449;-49
2022/11/02 01:18:55;;;;;;;6.93;1.70;;;11.10;99.90;;;;;;5135866;27;20479;-55
2022/11/02 01:21:21;;;;;;;6.07;1.40;;;11.10;99.90;;;;;;5118218;27;20094;-56
2022/11/02 01:23:47;;;;;;;2.95;1.42;;;11.10;99.90;;;;;;5117775;27;20051;-47
2022/11/02 01:26:13;;;;;;;4.40;1.25;;;11.10;99.90;;;;;;5099771;27;20111;-48
2022/11/02 01:28:39;;;;;;;3.45;1.10;;;11.10;99.90;;;;;;5137212;27;20911;-47
2022/11/02 01:31:06;;;;;;;3.88;1.23;;;11.10;99.90;;;;;;5140943;27;20153;-45
2022/11/02 01:33:32;;;;;;;6.43;2.33;;;11.10;99.90;;;;;;5139177;27;20092;-51
2022/11/02 01:35:58;;;;;;;10.02;2.75;;;11.10;99.90;;;;;;5121369;27;20939;-51
2022/11/02 01:38:24;;;;;;;3.97;1.40;;;11.10;99.90;;;;;;5139017;27;20103;-52
2022/11/02 01:40:50;;;;;;;5.32;1.83;;;11.00;99.90;;;;;;5140225;27;20538;-47
2022/11/02 01:43:29;;;;;;;5.78;1.77;;;10.90;99.90;;;;;;5139297;27;20418;-52
2022/11/02 01:46:00;;;;;;;6.53;1.23;;;10.80;99.90;;;;;;5140016;27;20556;-44
2022/11/02 01:48:38;;;;;;;6.35;1.90;;;10.80;99.90;;;;;;5139454;27;20053;-50
2022/11/02 01:51:09;;;;;;;6.35;2.10;;;10.80;99.90;;;;;;5140254;27;20061;-53
2022/11/02 01:53:38;;;;;;;6.35;2.13;;;10.80;99.90;;;;;;5138975;27;20054;-47
2022/11/02 01:56:05;;;;;;;6.30;2.60;;;10.80;99.90;;;;;;5140079;27;20046;-53
2022/11/02 01:58:33;;;;;;;7.78;4.05;;;10.70;99.90;;;;;;5138965;27;20167;-50
2022/11/02 02:01:00;;;;;;;5.20;2.35;;;10.80;99.90;;;;;;5139327;27;20047;-47
2022/11/02 02:03:28;;;;;;;8.38;2.83;;;10.70;99.90;;;;;;5120542;27;20057;-50
2022/11/02 02:06:06;;;;;;;7.60;3.05;;;10.70;99.90;;;;;;5117254;27;20046;-47
2022/11/02 02:08:34;;;;;;;6.40;2.97;;;10.70;99.90;;;;;;5111998;27;20058;-44
2022/11/02 02:10:59;;;;;;;7.85;3.10;;;10.70;99.90;;;;;;5117364;27;20466;-49
2022/11/02 02:13:27;;;;;;;6.72;2.95;;;10.70;99.90;;;;;;5138849;27;20499;-48
2022/11/02 02:16:12;;;;;;;9.85;3.05;;;10.60;99.90;;;;;;5139388;27;20519;-50
2022/11/02 02:18:43;;;;;;;7.00;3.17;;;10.70;99.90;;;;;;5138584;27;20543;-51
2022/11/02 02:21:54;;;;;;;4.88;2.10;;;10.70;99.90;;;;;;5121388;27;20051;-46
2022/11/02 02:24:32;;;;;;;6.70;2.10;;;10.70;99.90;;;;;;5125885;27;20054;-51
2022/11/02 02:27:20;;;;;;;7.13;1.80;;;10.70;99.90;;;;;;5120416;27;20111;-47
2022/11/02 02:30:00;;;;;;;7.97;1.42;;;10.70;99.90;;;;;;5139246;27;20147;-56
2022/11/02 02:32:53;;;;;;;4.43;1.45;;;10.60;99.90;;;;;;5126483;27;20051;-54
2022/11/02 02:35:46;;;;;;;4.13;1.20;;;10.60;99.90;;;;;;5138948;27;20500;-50
2022/11/02 02:38:40;;;;;;;4.45;1.20;;;10.60;99.90;;;;;;5139313;27;20055;-54
2022/11/02 02:41:12;;;;;;;6.43;1.38;;;10.60;99.90;;;;;;5139823;27;20050;-50
2022/11/02 02:43:43;;;;;;;5.50;1.10;;;10.50;99.90;;;;;;5138993;27;20054;-55
2022/11/02 02:46:20;;;;;;;3.65;1.00;;;10.50;99.90;;;;;;5139360;27;20051;-51
2022/11/02 02:48:47;;;;;;;3.60;1.20;;;10.50;99.90;;;;;;5138486;27;20575;-51
2022/11/02 02:51:31;;;;;;;6.00;1.55;;;10.40;99.90;;;;;;5139064;27;20412;-46
2022/11/02 02:54:11;;;;;;;5.35;1.13;;;10.40;99.90;;;;;;5137918;27;20150;-50
2022/11/02 02:56:41;;;;;;;3.35;0.95;;;10.40;99.90;;;;;;5138662;27;20053;-44
2022/11/02 02:59:22;;;;;;;2.78;0.90;;;10.40;99.90;;;;;;5138540;27;20046;-49
2022/11/02 03:01:48;;;;;;;3.47;0.80;;;10.40;99.90;;;;;;5134398;27;20057;-50
2022/11/02 03:04:15;;;;;;;4.68;1.50;;;10.30;99.90;;;;;;5135697;27;20050;-50
2022/11/02 03:06:44;;;;;;;4.32;1.10;;;10.30;99.90;;;;;;5134573;27;20474;-51
2022/11/02 03:09:40;;;;;;;3.80;1.13;;;10.30;99.90;;;;;;5127434;27;20051;-49
2022/11/02 03:12:25;;;;;;;4.50;0.80;;;10.40;99.90;;;;;;5138651;27;20054;-53
2022/11/02 03:15:03;;;;;;;7.15;1.88;;;10.30;99.90;;;;;;5119410;27;20089;-53
2022/11/02 03:17:41;;;;;;;7.95;1.95;;;10.30;99.90;;;;;;5137760;27;20458;-45
2022/11/02 03:20:22;;;;;;;6.07;1.30;;;10.30;99.90;;;;;;5138076;27;20062;-47
2022/11/02 03:23:07;;;;;;;10.38;1.83;;;10.30;99.90;;;;;;5138150;27;20055;-46
2022/11/02 03:26:04;;;;;;;10.88;1.60;;;10.20;99.90;;;;;;5102418;27;20493;-49
2022/11/02 03:28:39;;;;;;;11.15;1.95;;;10.20;99.90;;;;;;5118066;27;20065;-51
2022/11/02 03:31:22;;;;;;;8.65;1.85;;;10.20;99.90;;;;;;5137376;27;20682;-47
2022/11/02 03:34:01;;;;;;;11.45;2.20;;;10.20;99.90;;;;;;5136557;27;20583;-47
2022/11/02 03:36:50;;;;;;;11.38;2.15;;;10.20;99.90;;;;;;5137315;27;20491;-54
2022/11/02 03:39:39;;;;;;;13.48;1.88;;;10.30;99.90;;;;;;5118431;27;20059;-52
2022/11/02 03:42:08;;;;;;;13.15;2.60;;;10.20;99.90;;;;;;5124591;27;20069;-47
2022/11/02 03:44:37;;;;;;;11.65;2.10;;;10.20;99.90;;;;;;5137129;27;20061;-47
2022/11/02 03:47:06;;;;;;;12.00;2.40;;;10.20;99.90;;;;;;5118651;27;20457;-46
2022/11/02 03:49:33;;;;;;;8.43;2.08;;;10.20;99.90;;;;;;5136795;27;20497;-48
2022/11/02 03:52:04;;;;;;;7.57;2.25;;;10.20;99.90;;;;;;5118929;27;20585;-43
2022/11/02 03:54:53;;;;;;;11.70;2.10;;;10.20;99.90;;;;;;5118539;27;20053;-45
2022/11/02 03:57:25;;;;;;;8.57;2.10;;;10.30;99.90;;;;;;5137623;27;20049;-47
2022/11/02 03:59:51;;;;;;;9.75;2.22;;;10.30;99.90;;;;;;5123024;27;20050;-50
2022/11/02 04:02:18;;;;;;;14.30;2.30;;;10.30;99.90;;;;;;5136754;27;20412;-53
2022/11/02 04:04:51;;;;;;;9.80;1.75;;;10.40;99.90;;;;;;5114613;27;20121;-47
2022/11/02 04:08:19;;;;;;;10.40;2.75;;;10.30;99.90;;;;;;5137277;27;20415;-50
2022/11/02 04:10:15;;;;;;;10.13;2.35;;;10.40;99.90;;;;;;5113347;27;20059;-52
2022/11/02 04:15:25;;;;;;;9.07;1.73;;;10.40;99.90;;;;;;5136311;27;20062;-44
2022/11/02 04:20:35;;;;;;;10.43;2.30;;;10.30;99.90;;;;;;5118706;27;20057;-47
2022/11/02 04:25:45;;;;;;;19.00;3.22;;;10.30;99.90;;;;;;5136461;27;20058;-43
2022/11/02 04:28:10;;;;;;;8.80;2.00;;;10.30;99.90;;;;;;5136205;27;20042;-50
2022/11/02 04:30:36;;;;;;;14.38;2.92;;;10.30;99.90;;;;;;5118245;27;20050;-46
2022/11/02 04:35:46;;;;;;;12.15;2.58;;;10.30;99.90;;;;;;5124799;27;20437;-52
2022/11/02 04:43:43;;;;;;;13.43;3.13;;;10.30;99.90;;;;;;5123636;27;20625;-52
2022/11/02 04:46:08;;;;;;;10.90;2.63;;;10.30;99.90;;;;;;5117521;27;20062;-47
2022/11/02 04:48:34;;;;;;;9.98;2.53;;;10.30;99.90;;;;;;5136697;27;20057;-47
2022/11/02 04:51:00;;;;;;;13.82;2.65;;;10.30;99.90;;;;;;5137235;27;20147;-50
2022/11/02 04:53:25;;;;;;;10.57;3.40;;;10.40;99.90;;;;;;5136666;27;20110;-45
2022/11/02 04:55:51;;;;;;;14.63;4.05;;;10.40;99.90;;;;;;5136351;27;20396;-48
2022/11/02 04:58:17;;;;;;;9.85;2.67;;;10.40;99.90;;;;;;5116291;27;20440;-53
2022/11/02 05:00:42;;;;;;;9.20;3.20;;;10.40;99.90;;;;;;5136311;27;20058;-49
2022/11/02 05:03:08;;;;;;;13.52;3.17;;;10.40;99.90;;;;;;5105246;27;20631;-53
2022/11/02 05:05:33;;;;;;;13.45;3.95;;;10.30;99.90;;;;;;5135358;27;20104;-53
2022/11/02 05:07:59;;;;;;;12.18;3.05;;;10.30;99.90;;;;;;5108503;27;20047;-45
2022/11/02 05:10:25;;;;;;;10.35;2.92;;;10.40;99.90;;;;;;5132882;27;20049;-45
2022/11/02 05:12:58;;;;;;;13.52;3.20;;;10.40;99.90;;;;;;5107478;27;20117;-53
2022/11/02 05:15:24;;;;;;;13.38;3.35;;;10.40;99.90;;;;;;5140164;27;20536;-51
2022/11/02 05:17:49;;;;;;;17.75;4.82;;;10.40;99.90;;;;;;5140337;27;20133;-47
2022/11/02 05:20:15;;;;;;;9.13;3.45;;;10.40;99.90;;;;;;5140164;27;20078;-44
2022/11/02 05:22:41;;;;;;;10.05;3.35;;;10.40;99.90;;;;;;5139791;27;20460;-48
2022/11/02 05:25:08;;;;;;;13.23;3.13;;;10.50;99.90;;;;;;5140529;27;20649;-48
2022/11/02 05:27:33;;;;;;;13.70;3.08;;;10.40;99.90;;;;;;5121107;27;20070;-52
2022/11/02 05:29:59;;;;;;;17.15;3.58;;;10.40;99.90;;;;;;5139309;27;20491;-49
2022/11/02 05:32:26;;;;;;;12.90;2.72;;;10.50;99.90;;;;;;5139459;27;20556;-48
2022/11/02 05:34:52;;;;;;;13.95;3.70;;;10.40;99.90;;;;;;5140048;27;20586;-49
2022/11/02 05:37:18;;;;;;;12.52;3.00;;;10.50;99.90;;;;;;5120640;27;20047;-54
2022/11/02 05:39:47;;;;;;;14.82;3.00;;;10.50;99.90;;;;;;5139100;27;20392;-48
2022/11/02 05:42:12;;;;;;;14.55;3.75;;;10.50;99.90;;;;;;5140044;27;20057;-51
2022/11/02 05:44:38;;;;;;;16.60;3.35;;;10.50;99.90;;;;;;5140421;27;20054;-56
2022/11/02 05:47:04;;;;;;;12.20;3.22;;;10.50;99.90;;;;;;5139752;27;20047;-50
2022/11/02 05:49:29;;;;;;;14.32;3.63;;;10.50;99.90;;;;;;5139724;27;20043;-49
2022/11/02 05:51:55;;;;;;;9.77;2.72;;;10.50;99.90;;;;;;5140148;27;20403;-47
2022/11/02 05:54:21;;;;;;;13.05;2.70;;;10.50;99.90;;;;;;5139313;27;20397;-51
2022/11/02 05:56:47;;;;;;;11.52;2.50;;;10.50;99.90;;;;;;5139746;27;20047;-46
2022/11/02 05:59:12;;;;;;;16.70;3.47;;;10.50;99.90;;;;;;5121121;27;20552;-54
2022/11/02 06:01:38;;;;;;;12.55;2.60;;;10.50;99.90;;;;;;5139654;27;20054;-54
2022/11/02 06:04:05;;;;;;;18.10;3.67;;;10.60;99.90;;;;;;5139373;27;20407;-55
2022/11/02 06:06:30;;;;;;;14.23;2.65;;;10.60;99.90;;;;;;5136274;27;20429;-50
2022/11/02 06:08:56;;;;;;;11.82;3.13;;;10.50;99.90;;;;;;5128242;27;20086;-44
2022/11/02 06:11:22;;;;;;;9.88;2.22;;;10.60;99.90;;;;;;5139977;27;20059;-43
2022/11/02 06:13:49;;;;;;;13.38;2.60;;;10.50;99.90;;;;;;5119778;27;20111;-53
2022/11/02 06:16:16;;;;;;;20.67;3.58;;;10.60;99.90;;;;;;5139428;27;20059;-50
2022/11/02 06:18:42;;;;;;;14.65;2.80;;;10.60;99.90;;;;;;5138568;27;20531;-43
2022/11/02 06:21:08;;;;;;;15.88;4.43;;;10.60;99.90;;;;;;5139191;27;20082;-55
2022/11/02 06:23:34;;;;;;;18.90;3.83;;;10.60;99.90;;;;;;5138687;27;20127;-56
2022/11/02 06:26:01;;;;;;;16.67;3.78;;;10.60;99.90;;;;;;5120507;27;20117;-44
2022/11/02 06:28:27;;;;;;;14.07;2.63;;;10.60;99.90;;;;;;5138017;27;20038;-50
2022/11/02 06:30:53;;;;;;;14.55;3.20;;;10.60;99.90;;;;;;5100006;27;20047;-52
2022/11/02 06:33:19;;;;;;;17.00;2.90;;;10.50;99.90;;;;;;5114873;27;20636;-53
2022/11/02 06:35:52;;;;;;;14.85;3.20;;;10.60;99.90;;;;;;5121022;27;20057;-45
2022/11/02 06:38:18;;;;;;;20.23;3.05;;;10.50;99.90;;;;;;5138471;27;20042;-46
2022/11/02 06:40:57;;;;;;;21.23;4.30;;;10.60;99.90;;;;;;5139241;27;20377;-52
2022/11/02 06:43:23;;;;;;;13.82;2.58;;;10.60;99.90;;;;;;5138375;27;20046;-47
2022/11/02 06:45:49;;;;;;;14.15;2.92;;;10.60;99.90;;;;;;5120386;27;20050;-49
2022/11/02 06:48:15;;;;;;;10.48;2.78;;;10.50;99.90;;;;;;5101914;27;20068;-45
2022/11/02 06:50:40;;;;;;;17.40;3.15;;;10.60;99.90;;;;;;5138636;27;20042;-46
2022/11/02 06:53:06;;;;;;;15.20;3.03;;;10.60;99.90;;;;;;5138701;27;20869;-45
2022/11/02 06:55:32;;;;;;;10.70;2.25;;;10.60;99.90;;;;;;5138615;27;20455;-51
2022/11/02 06:57:57;;;;;;;10.90;2.10;;;10.60;99.90;;;;;;5137421;27;20606;-51
2022/11/02 07:00:23;;;;;;;11.43;2.28;;;10.60;99.90;;;;;;5138663;27;20401;-47
2022/11/02 07:03:03;;;;;;;14.68;2.85;;;10.60;99.90;;;;;;5137071;27;20053;-45
2022/11/02 07:05:30;;;;;;;12.60;2.33;;;10.70;99.90;;;;;;5138021;27;20115;-51
2022/11/02 07:07:56;;;;;;;13.73;2.15;;;10.70;99.90;;;;;;5116233;27;20126;-46
2022/11/02 07:10:22;;;;;;;9.60;2.33;;;10.70;99.90;;;;;;5130208;27;20043;-49
2022/11/02 07:12:52;;;;;;;12.13;2.35;;;10.70;99.90;;;;;;5137267;27;20574;-47
2022/11/02 07:15:18;;;;;;;12.73;2.03;;;10.70;99.90;;;;;;5138231;27;20134;-49
2022/11/02 07:17:44;;;;;;;9.55;1.85;;;10.60;99.90;;;;;;5118571;27;20141;-53
2022/11/02 07:20:10;;;;;;;11.27;2.15;;;10.60;99.90;;;;;;5137816;27;20046;-51
2022/11/02 07:22:36;;;;;;;8.02;2.42;;;10.60;99.90;;;;;;5118808;27;20050;-47
2022/11/02 07:25:02;;;;;;;12.70;2.20;;;10.50;99.90;;;;;;5137725;27;20047;-44
2022/11/02 07:27:28;;;;;;;9.48;2.33;;;10.60;99.90;;;;;;5118241;27;20082;-51
2022/11/02 07:29:54;;;;;;;15.27;2.20;;;10.50;99.90;;;;;;5137252;27;20133;-53
2022/11/02 07:32:19;;;;;;;18.70;3.65;;;10.50;99.90;;;;;;5128687;27;20042;-49
2022/11/02 07:34:46;;;;;;;13.38;2.10;;;10.50;99.90;;;;;;5137062;27;20054;-48
2022/11/02 07:37:11;;;;;;;9.98;1.98;;;10.50;99.90;;;;;;5107572;27;20082;-46
2022/11/02 07:39:37;;;;;;;11.32;1.88;;;10.60;99.90;;;;;;5115855;27;20126;-47
2022/11/02 07:42:03;;;;;;;10.13;2.25;;;10.60;99.90;;;;;;5115185;27;20126;-50
2022/11/02 07:44:29;;;;;;;7.63;2.10;;;10.60;99.90;;;;;;5116389;27;20047;-51
2022/11/02 07:46:55;;;;;;;10.20;2.00;;;10.70;99.90;;;;;;5123492;27;20048;-51
2022/11/02 07:49:21;;;;;;;7.15;1.98;;;10.80;99.90;;;;;;5134210;27;20039;-53
2022/11/02 07:51:46;;;;;;;9.55;2.28;;;10.80;99.90;;;;;;5134870;27;20405;-54
2022/11/02 07:54:12;;;;;;;8.50;2.33;;;10.80;99.90;;;;;;5135723;27;20070;-47
2022/11/02 07:56:38;;;;;;;9.85;2.92;;;10.80;99.90;;;;;;5136262;27;20408;-56
2022/11/02 07:59:03;;;;;;;11.52;2.20;;;10.90;99.90;;;;;;5135765;27;20557;-47
2022/11/02 08:01:29;;;;;;;15.77;2.97;;;11.00;99.90;;;;;;5136277;27;20045;-50
2022/11/02 08:03:55;;;;;;;12.02;2.42;;;11.10;99.90;;;;;;5115980;27;20155;-45
2022/11/02 08:06:21;;;;;;;15.55;3.05;;;11.20;99.90;;;;;;5117467;27;20106;-51
2022/11/02 08:08:46;;;;;;;7.05;2.72;;;11.20;99.90;;;;;;5135770;27;20055;-48
2022/11/02 08:11:12;;;;;;;10.70;2.85;;;11.10;99.90;;;;;;5127210;27;20448;-47
2022/11/02 08:13:38;;;;;;;9.32;2.53;;;11.20;99.90;;;;;;5127213;27;20505;-54
2022/11/02 08:16:04;;;;;;;11.07;2.58;;;11.30;99.90;;;;;;5149661;27;20058;-47
2022/11/02 08:18:31;;;;;;;10.52;2.28;;;11.40;99.90;;;;;;5152168;27;20421;-48
2022/11/02 08:20:58;;;;;;;9.10;1.90;;;11.50;99.90;;;;;;5128310;27;20050;-48
2022/11/02 08:23:25;;;;;;;15.60;2.50;;;11.50;99.90;;;;;;5110206;27;20044;-51
2022/11/02 08:25:52;;;;;;;11.15;2.10;;;11.40;99.90;;;;;;5133860;27;20049;-53
2022/11/02 08:28:24;;;;;;;10.07;2.40;;;11.40;99.90;;;;;;5122235;27;20073;-47
2022/11/02 08:30:50;;;;;;;15.40;2.20;;;11.40;99.90;;;;;;5118858;27;20207;-55
2022/11/02 08:33:17;;;;;;;9.00;1.95;;;11.50;99.90;;;;;;5115917;27;20050;-51
2022/11/02 08:35:44;;;;;;;12.27;2.80;;;11.50;99.90;;;;;;5136029;27;20055;-56
2022/11/02 08:38:10;;;;;;;8.02;1.80;;;11.50;99.90;;;;;;5114749;27;20083;-49
2022/11/02 08:40:36;;;;;;;9.25;2.15;;;11.60;99.90;;;;;;5136852;27;20875;-52
2022/11/02 08:43:04;;;;;;;14.35;2.47;;;11.60;99.90;;;;;;5135514;27;20072;-49
2022/11/02 08:45:31;;;;;;;12.15;2.15;;;11.50;99.90;;;;;;5135116;27;20445;-45
2022/11/02 08:47:57;;;;;;;12.90;1.90;;;11.50;99.90;;;;;;5113956;27;20050;-53
2022/11/02 08:50:23;;;;;;;14.50;2.50;;;11.60;99.90;;;;;;5125833;27;20482;-45
2022/11/02 08:52:49;;;;;;;10.13;2.25;;;11.50;99.90;;;;;;5111764;27;20511;-48
2022/11/02 08:55:15;;;;;;;9.75;2.28;;;11.50;99.90;;;;;;5130375;27;20046;-50
2022/11/02 08:57:49;;;;;;;10.48;2.20;;;11.60;99.90;;;;;;5115793;27;20058;-52
2022/11/02 09:00:20;;;;;;;11.82;2.03;;;11.60;99.90;;;;;;5136899;27;20121;-51
2022/11/02 09:02:57;;;;;;;9.93;1.98;;;11.60;99.90;;;;;;5140056;27;20072;-44
2022/11/02 09:05:23;;;;;;;8.55;1.95;;;11.60;99.90;;;;;;5116556;27;20050;-51
2022/11/02 09:07:57;;;;;;;12.75;2.47;;;11.60;99.90;;;;;;5133426;27;20035;-50
2022/11/02 09:10:22;;;;;;;9.63;2.40;;;11.60;99.90;;;;;;5124663;27;20035;-52
2022/11/02 09:12:48;;;;;;;9.23;2.28;;;11.60;99.90;;;;;;5136977;27;20531;-50
2022/11/02 09:15:13;;;;;;;9.80;2.50;;;11.60;99.90;;;;;;5152813;27;20043;-46
2022/11/02 09:17:39;;;;;;;11.63;2.50;;;11.70;99.90;;;;;;5132460;27;20420;-44
2022/11/02 09:20:05;;;;;;;11.02;2.17;;;11.70;99.90;;;;;;5125667;27;20050;-52
2022/11/02 09:22:31;;;;;;;10.82;2.38;;;11.70;99.90;;;;;;5122325;27;20082;-49
2022/11/02 09:24:57;;;;;;;10.50;2.00;;;11.70;99.90;;;;;;5123143;27;20130;-52
2022/11/02 09:27:22;;;;;;;16.35;2.75;;;11.70;99.90;;;;;;5120092;27;20202;-45
2022/11/02 09:29:48;;;;;;;9.95;1.92;;;11.70;99.90;;;;;;5132790;27;20321;-52
2022/11/02 09:32:13;;;;;;;9.35;1.90;;;11.70;99.90;;;;;;5134958;27;20381;-49
2022/11/02 09:34:39;;;;;;;12.38;2.40;;;11.80;99.90;;;;;;5123232;27;20043;-46
2022/11/02 09:37:05;;;;;;;12.18;2.53;;;11.80;99.90;;;;;;5152922;27;20122;-44
2022/11/02 09:39:30;;;;;;;12.68;2.45;;;11.80;99.90;;;;;;5154135;27;20042;-55
2022/11/02 09:42:25;;;;;;;10.38;2.42;;;11.80;99.90;;;;;;5148098;27;20522;-50
2022/11/02 09:44:59;;;;;;;10.90;2.50;;;11.80;99.90;;;;;;5138359;27;20111;-52
2022/11/02 09:47:27;;;;;;;14.63;2.97;;;11.90;99.90;;;;;;5125982;27;20077;-44
2022/11/02 09:49:54;;;;;;;8.05;2.30;;;11.90;99.90;;;;;;5116707;27;20042;-52
2022/11/02 09:52:31;;;;;;;13.07;2.60;;;12.00;99.90;;;;;;5119316;27;20062;-49
2022/11/02 09:54:59;;;;;;;13.30;2.58;;;12.00;99.90;;;;;;5139935;27;20401;-45
2022/11/02 09:57:31;;;;;;;13.32;3.13;;;12.10;99.90;;;;;;5139907;27;20619;-45
2022/11/02 09:59:57;;;;;;;13.43;3.67;;;12.10;99.90;;;;;;5140080;27;20404;-46
2022/11/02 10:02:51;;;;;;;14.77;2.95;;;12.20;99.90;;;;;;5139174;27;20046;-48
2022/11/02 10:05:37;;;;;;;16.33;2.85;;;12.20;99.90;;;;;;5135612;27;20066;-50
2022/11/02 10:08:32;;;;;;;11.02;3.15;;;12.30;99.90;;;;;;5116856;27;20133;-51
2022/11/02 10:11:06;;;;;;;10.50;2.75;;;12.30;99.90;;;;;;5100294;27;20105;-52
2022/11/02 10:13:31;;;;;;;11.85;2.30;;;12.30;99.90;;;;;;5138754;27;20051;-49
2022/11/02 10:16:23;;;;;;;8.38;1.90;;;12.30;99.90;;;;;;5138812;27;20381;-52
2022/11/02 10:18:51;;;;;;;9.18;2.55;;;12.30;99.90;;;;;;5137721;27;20190;-51
2022/11/02 10:21:31;;;;;;;9.43;2.47;;;12.30;99.90;;;;;;5138793;27;20114;-52
2022/11/02 10:24:09;;;;;;;13.98;3.08;;;12.30;99.90;;;;;;5139008;27;20093;-52
2022/11/02 10:26:38;;;;;;;10.85;3.33;;;12.30;99.90;;;;;;5120156;27;20133;-49
2022/11/02 10:29:11;;;;;;;10.50;2.22;;;12.30;99.90;;;;;;5120218;27;20441;-48
2022/11/02 10:31:37;;;;;;;13.05;2.80;;;12.30;99.90;;;;;;5139084;27;20039;-51
2022/11/02 10:34:14;;;;;;;12.43;3.10;;;12.30;99.90;;;;;;5138150;27;20118;-48
2022/11/02 10:36:54;;;;;;;10.57;2.50;;;12.40;99.90;;;;;;5138951;27;20043;-49
2022/11/02 10:39:34;;;;;;;11.82;2.42;;;12.40;99.90;;;;;;5138397;27;20047;-45
2022/11/02 10:42:32;;;;;;;14.80;3.00;;;12.50;99.90;;;;;;5119867;27;20445;-47
2022/11/02 10:45:28;;;;;;;11.65;2.42;;;12.50;99.90;;;;;;5034369;28;20367;-53
2022/11/02 10:47:56;;;;;;;13.20;1.92;;;12.40;99.90;;;;;;5033980;28;20788;-47
2022/11/02 10:50:56;;;;;;;12.60;2.58;;;12.30;99.90;;;;;;5034576;28;20508;-50
2022/11/02 10:53:22;;;;;;;12.05;2.70;;;12.20;99.90;;;;;;5033609;28;20054;-52
2022/11/02 10:56:00;;;;;;;8.85;2.33;;;12.30;99.90;;;;;;5034132;28;20114;-48
2022/11/02 10:58:29;;;;;;;8.55;2.33;;;12.30;99.90;;;;;;5033600;28;20064;-47
2022/11/02 11:01:09;;;;;;;13.00;2.58;;;12.30;99.90;;;;;;5016696;28;20550;-47
2022/11/02 11:04:02;;;;;;;7.40;1.55;;;12.40;99.90;;;;;;5033359;28;20522;-47
2022/11/02 11:06:33;;;;;;;8.13;1.50;;;12.40;99.90;;;;;;4971193;28;21007;-52
2022/11/02 11:09:03;;;;;;;11.18;2.03;;;12.40;99.90;;;;;;4973408;28;20185;-47
2022/11/02 11:11:36;;;;;;;9.70;2.05;;;12.50;99.90;;;;;;4974833;28;20145;-45
2022/11/02 11:14:16;;;;;;;8.63;2.20;;;12.50;99.90;;;;;;4974643;28;20050;-48
2022/11/02 11:16:48;;;;;;;15.98;2.17;;;12.50;99.90;;;;;;4974754;28;20125;-46
2022/11/02 11:19:23;;;;;;;9.55;2.47;;;12.50;99.90;;;;;;4973952;28;20541;-48
2022/11/02 11:21:49;;;;;;;8.30;1.80;;;12.50;99.90;;;;;;5015826;28;20056;-46
2022/11/02 11:24:22;;;;;;;9.85;2.17;;;12.50;99.90;;;;;;5046319;28;20136;-49
2022/11/02 11:27:14;;;;;;;10.68;2.45;;;12.50;99.90;;;;;;5032975;28;20165;-51
2022/11/02 11:29:50;;;;;;;11.73;2.58;;;12.60;99.90;;;;;;5044093;28;20647;-54
2022/11/02 11:32:26;;;;;;;8.20;1.58;;;12.70;99.90;;;;;;5046984;28;20107;-47
2022/11/02 11:35:16;;;;;;;8.57;2.35;;;12.80;99.90;;;;;;5033642;28;20419;-47
2022/11/02 11:37:58;;;;;;;10.38;2.38;;;12.90;99.90;;;;;;5032152;28;20480;-51
2022/11/02 11:40:34;;;;;;;11.38;1.98;;;12.90;99.90;;;;;;5039893;28;20699;-49
2022/11/02 11:43:01;;;;;;;13.02;2.33;;;13.00;99.90;;;;;;5061448;27;20059;-51
2022/11/02 11:45:30;;;;;;;13.85;2.63;;;13.00;99.90;;;;;;5135839;27;20046;-50
2022/11/02 11:48:17;;;;;;;5.78;1.60;;;13.00;99.90;;;;;;5118806;27;20233;-50
2022/11/02 11:50:46;;;;;;;8.98;2.30;;;13.10;99.90;;;;;;5137924;27;20098;-50
2022/11/02 11:53:12;;;;;;;12.45;2.50;;;13.20;99.90;;;;;;5118741;27;20055;-53
2022/11/02 11:55:47;;;;;;;11.32;2.10;;;13.30;99.90;;;;;;5137595;27;20152;-55
2022/11/02 11:58:13;;;;;;;10.70;2.22;;;13.30;99.90;;;;;;5129319;27;20050;-55
2022/11/02 12:00:39;;;;;;;13.35;2.92;;;13.30;99.90;;;;;;5116436;27;20046;-48
2022/11/02 12:03:09;;;;;;;10.18;2.22;;;13.40;99.90;;;;;;5137137;27;20129;-51
2022/11/02 12:05:52;;;;;;;10.30;2.22;;;13.50;99.90;;;;;;5133478;27;20406;-48
2022/11/02 12:08:40;;;;;;;10.88;2.22;;;13.50;99.90;;;;;;5119064;27;20051;-55
2022/11/02 12:11:19;;;;;;;13.35;3.50;;;13.60;99.90;;;;;;5117219;27;20384;-51
2022/11/02 12:14:03;;;;;;;16.70;3.92;;;13.60;99.90;;;;;;5135176;27;20038;-45
2022/11/02 12:17:11;;;;;;;13.45;3.78;;;13.70;99.90;;;;;;5137103;27;20156;-48
2022/11/02 12:20:04;;;;;;;10.07;2.38;;;13.70;99.90;;;;;;5133387;27;20150;-48
2022/11/02 12:23:09;;;;;;;13.80;4.43;;;13.90;99.90;;;;;;5136143;27;20125;-48
2022/11/02 12:25:43;;;;;;;16.20;4.05;;;14.00;99.90;;;;;;5031355;28;20099;-44
2022/11/02 12:28:36;;;;;;;15.60;2.63;;;14.00;99.90;;;;;;5030577;28;20576;-46
2022/11/02 12:31:19;;;;;;;8.18;3.00;;;13.90;99.90;;;;;;5014183;28;20228;-56
2022/11/02 12:34:03;;;;;;;;;;;13.90;99.90;;;;;;5028519;28;20574;-47
2022/11/02 12:36:41;;;;;;;10.90;2.38;;;13.80;99.90;;;;;;5030982;28;20011;-50
2022/11/02 12:39:12;;;;;;;9.77;3.05;;;13.80;99.90;;;;;;5030355;28;20049;-48
2022/11/02 12:41:43;;;;;;;11.70;3.22;;;13.80;99.90;;;;;;5030441;28;20045;-56
2022/11/02 12:44:32;;;;;;;14.02;2.60;;;13.80;99.90;;;;;;5031604;28;20128;-53
2022/11/02 12:47:02;;;;;;;12.27;2.42;;;13.80;99.90;;;;;;5025762;28;20155;-55
2022/11/02 12:50:14;;;;;;;12.43;2.15;;;13.80;99.90;;;;;;5032007;28;20487;-50
2022/11/02 12:53:28;;;;;;;11.07;2.65;;;13.80;99.90;;;;;;5010875;28;20091;-44
2022/11/02 12:55:58;;;;;;;12.88;2.65;;;13.70;99.90;;;;;;5004231;28;20065;-49
2022/11/02 12:58:31;;;;;;;12.27;2.63;;;13.80;99.90;;;;;;4994864;28;20108;-51
2022/11/02 13:01:04;;;;;;;;;;;13.80;99.90;;;;;;5011745;28;20283;-46
2022/11/02 13:03:38;;;;;;;10.95;2.05;;;13.80;99.90;;;;;;5054946;28;19924;-47
2022/11/02 13:06:10;;;;;;;12.75;2.35;;;13.70;99.90;;;;;;5070657;28;20103;-54
2022/11/02 13:08:53;;;;;;;15.70;2.80;;;13.70;99.90;;;;;;5066174;28;20052;-48
2022/11/02 13:11:35;;;;;;;9.77;2.33;;;13.70;99.90;;;;;;5069124;28;20152;-48
2022/11/02 13:14:04;;;;;;;10.55;2.20;;;13.60;99.90;;;;;;5072067;28;20032;-43
2022/11/02 13:16:40;;;;;;;11.00;2.22;;;13.60;99.90;;;;;;5072915;28;20583;-44
2022/11/02 13:19:17;;;;;;;9.73;1.83;;;13.60;99.90;;;;;;5071825;28;20667;-48